createdAt,value
2022-10-23T21:32:33.097Z,22.00
2022-10-23T21:35:04.827Z,22.10
2022-10-23T21:37:34.649Z,22.48
2022-10-23T21:40:02.399Z,24.67
2022-10-23T21:42:31.117Z,22.00
2022-10-23T21:44:58.909Z,21.60
2022-10-23T21:47:27.370Z,21.95
2022-10-23T21:49:57.520Z,17.48
2022-10-23T21:52:28.995Z,17.10
2022-10-23T21:54:56.536Z,21.23
2022-10-23T21:57:25.648Z,21.98
2022-10-23T21:59:54.696Z,25.75
2022-10-23T22:02:22.607Z,26.85
2022-10-23T22:04:50.430Z,21.23
2022-10-23T22:07:56.199Z,23.75
2022-10-23T22:10:08.764Z,22.20
2022-10-23T22:12:54.105Z,21.45
2022-10-23T22:15:24.733Z,21.27
2022-10-23T22:17:54.922Z,20.90
2022-10-23T22:20:23.198Z,20.70
2022-10-23T22:22:52.836Z,22.95
2022-10-23T22:25:20.822Z,21.25
2022-10-23T22:27:48.949Z,22.27
2022-10-23T22:30:21.112Z,24.80
2022-10-23T22:32:49.503Z,21.25
2022-10-23T22:35:19.949Z,24.25
2022-10-23T22:37:50.212Z,27.27
2022-10-23T22:40:17.997Z,30.08
2022-10-23T22:42:48.140Z,27.90
2022-10-23T22:45:16.078Z,25.77
2022-10-23T22:47:43.766Z,30.92
2022-10-23T22:50:11.714Z,28.80
2022-10-23T22:52:39.559Z,31.42
2022-10-23T22:55:07.606Z,28.50
2022-10-23T22:57:38.478Z,33.75
2022-10-23T23:00:06.997Z,31.67
2022-10-23T23:02:37.915Z,28.02
2022-10-23T23:05:07.127Z,38.80
2022-10-23T23:08:02.945Z,37.17
2022-10-23T23:10:31.571Z,34.20
2022-10-23T23:13:01.746Z,32.72
2022-10-23T23:15:29.551Z,30.42
2022-10-23T23:17:57.501Z,28.52
2022-10-23T23:20:30.559Z,30.88
2022-10-23T23:22:59.757Z,27.77
2022-10-23T23:25:27.561Z,30.70
2022-10-23T23:27:55.311Z,30.27
2022-10-23T23:30:24.323Z,25.65
2022-10-23T23:32:53.121Z,26.38
2022-10-23T23:35:21.856Z,23.40
2022-10-23T23:37:51.508Z,23.23
2022-10-23T23:40:22.193Z,20.35
2022-10-23T23:42:49.877Z,19.70
2022-10-23T23:45:17.483Z,24.55
2022-10-23T23:47:48.817Z,22.55
2022-10-23T23:50:18.442Z,23.50
2022-10-23T23:52:46.858Z,19.55
2022-10-23T23:55:14.350Z,26.55
2022-10-23T23:57:42.166Z,16.77
